sensor_id;sensor_type;location;lat;lon;timestamp;P1;durP1;ratioP1;P2;durP2;ratioP2
10432;SDS011;5263;48.680;9.004;2023-07-22T00:02:02;1.20;;;1.10;;
10432;SDS011;5263;48.680;9.004;2023-07-22T00:04:28;3.00;;;1.10;;
10432;SDS011;5263;48.680;9.004;2023-07-22T00:06:54;1.20;;;1.10;;
10432;SDS011;5263;48.680;9.004;2023-07-22T00:09:19;1.07;;;1.00;;
10432;SDS011;5263;48.680;9.004;2023-07-22T00:11:45;6.77;;;1.40;;
10432;SDS011;5263;48.680;9.004;2023-07-22T00:14:10;1.43;;;1.20;;
10432;SDS011;5263;48.680;9.004;2023-07-22T00:16:36;1.93;;;1.30;;
10432;SDS011;5263;48.680;9.004;2023-07-22T00:19:01;1.30;;;0.90;;
10432;SDS011;5263;48.680;9.004;2023-07-22T00:21:27;2.73;;;0.97;;
10432;SDS011;5263;48.680;9.004;2023-07-22T00:23:54;2.37;;;1.00;;
10432;SDS011;5263;48.680;9.004;2023-07-22T00:26:19;2.03;;;1.20;;
10432;SDS011;5263;48.680;9.004;2023-07-22T00:28:45;1.30;;;0.97;;
10432;SDS011;5263;48.680;9.004;2023-07-22T00:31:11;1.00;;;0.90;;
10432;SDS011;5263;48.680;9.004;2023-07-22T00:33:37;1.27;;;1.00;;
10432;SDS011;5263;48.680;9.004;2023-07-22T00:36:03;1.73;;;0.87;;
10432;SDS011;5263;48.680;9.004;2023-07-22T00:38:29;1.03;;;0.97;;
10432;SDS011;5263;48.680;9.004;2023-07-22T00:40:55;2.30;;;1.30;;
10432;SDS011;5263;48.680;9.004;2023-07-22T00:43:20;1.67;;;1.17;;
10432;SDS011;5263;48.680;9.004;2023-07-22T00:45:46;1.00;;;0.80;;
10432;SDS011;5263;48.680;9.004;2023-07-22T00:48:12;0.90;;;0.80;;
10432;SDS011;5263;48.680;9.004;2023-07-22T00:50:39;1.13;;;1.03;;
10432;SDS011;5263;48.680;9.004;2023-07-22T00:53:05;2.40;;;0.90;;
10432;SDS011;5263;48.680;9.004;2023-07-22T00:55:31;3.63;;;0.90;;
10432;SDS011;5263;48.680;9.004;2023-07-22T00:57:59;2.43;;;1.00;;
10432;SDS011;5263;48.680;9.004;2023-07-22T01:00:25;1.67;;;1.10;;
10432;SDS011;5263;48.680;9.004;2023-07-22T01:02:50;0.80;;;0.80;;
10432;SDS011;5263;48.680;9.004;2023-07-22T01:05:16;1.37;;;1.07;;
10432;SDS011;5263;48.680;9.004;2023-07-22T01:07:42;0.90;;;0.90;;
10432;SDS011;5263;48.680;9.004;2023-07-22T01:10:09;1.00;;;0.90;;
10432;SDS011;5263;48.680;9.004;2023-07-22T01:12:34;3.60;;;1.50;;
10432;SDS011;5263;48.680;9.004;2023-07-22T01:15:01;2.27;;;1.10;;
10432;SDS011;5263;48.680;9.004;2023-07-22T01:17:28;1.60;;;1.13;;
10432;SDS011;5263;48.680;9.004;2023-07-22T01:19:54;2.93;;;0.90;;
10432;SDS011;5263;48.680;9.004;2023-07-22T01:22:20;1.53;;;0.80;;
10432;SDS011;5263;48.680;9.004;2023-07-22T01:24:47;1.90;;;1.07;;
10432;SDS011;5263;48.680;9.004;2023-07-22T01:27:12;1.50;;;1.10;;
10432;SDS011;5263;48.680;9.004;2023-07-22T01:29:39;1.33;;;1.03;;
10432;SDS011;5263;48.680;9.004;2023-07-22T01:32:05;1.20;;;1.10;;
10432;SDS011;5263;48.680;9.004;2023-07-22T01:34:31;1.63;;;1.20;;
10432;SDS011;5263;48.680;9.004;2023-07-22T01:36:56;4.73;;;1.30;;
10432;SDS011;5263;48.680;9.004;2023-07-22T01:39:22;0.93;;;0.93;;
10432;SDS011;5263;48.680;9.004;2023-07-22T01:41:48;0.90;;;0.90;;
10432;SDS011;5263;48.680;9.004;2023-07-22T01:44:14;1.17;;;1.07;;
10432;SDS011;5263;48.680;9.004;2023-07-22T01:46:40;2.07;;;1.00;;
10432;SDS011;5263;48.680;9.004;2023-07-22T01:49:10;3.67;;;1.27;;
10432;SDS011;5263;48.680;9.004;2023-07-22T01:51:37;1.60;;;0.90;;
10432;SDS011;5263;48.680;9.004;2023-07-22T01:54:03;1.47;;;0.90;;
10432;SDS011;5263;48.680;9.004;2023-07-22T01:56:29;3.23;;;1.13;;
10432;SDS011;5263;48.680;9.004;2023-07-22T01:58:55;1.10;;;1.00;;
10432;SDS011;5263;48.680;9.004;2023-07-22T02:01:21;3.30;;;1.30;;
10432;SDS011;5263;48.680;9.004;2023-07-22T02:03:46;3.23;;;0.93;;
10432;SDS011;5263;48.680;9.004;2023-07-22T02:06:12;1.40;;;1.20;;
10432;SDS011;5263;48.680;9.004;2023-07-22T02:08:38;1.67;;;1.07;;
10432;SDS011;5263;48.680;9.004;2023-07-22T02:11:04;1.30;;;1.20;;
10432;SDS011;5263;48.680;9.004;2023-07-22T02:13:31;2.90;;;1.10;;
10432;SDS011;5263;48.680;9.004;2023-07-22T02:15:57;0.90;;;0.90;;
10432;SDS011;5263;48.680;9.004;2023-07-22T02:18:23;4.07;;;1.53;;
10432;SDS011;5263;48.680;9.004;2023-07-22T02:20:49;1.50;;;0.90;;
10432;SDS011;5263;48.680;9.004;2023-07-22T02:23:15;1.37;;;0.93;;
10432;SDS011;5263;48.680;9.004;2023-07-22T02:25:40;2.50;;;1.00;;
10432;SDS011;5263;48.680;9.004;2023-07-22T02:28:06;1.17;;;0.97;;
10432;SDS011;5263;48.680;9.004;2023-07-22T02:30:38;1.33;;;1.23;;
10432;SDS011;5263;48.680;9.004;2023-07-22T02:33:05;1.50;;;1.00;;
10432;SDS011;5263;48.680;9.004;2023-07-22T02:35:30;3.07;;;1.00;;
10432;SDS011;5263;48.680;9.004;2023-07-22T02:37:56;1.10;;;1.00;;
10432;SDS011;5263;48.680;9.004;2023-07-22T02:40:22;1.20;;;1.00;;
10432;SDS011;5263;48.680;9.004;2023-07-22T02:42:47;1.33;;;1.10;;
10432;SDS011;5263;48.680;9.004;2023-07-22T02:45:13;3.97;;;1.40;;
10432;SDS011;5263;48.680;9.004;2023-07-22T02:47:38;1.23;;;0.93;;
10432;SDS011;5263;48.680;9.004;2023-07-22T02:50:05;1.00;;;1.00;;
10432;SDS011;5263;48.680;9.004;2023-07-22T02:52:31;1.50;;;1.30;;
10432;SDS011;5263;48.680;9.004;2023-07-22T02:55:07;1.73;;;1.10;;
10432;SDS011;5263;48.680;9.004;2023-07-22T02:57:37;2.63;;;1.43;;
10432;SDS011;5263;48.680;9.004;2023-07-22T03:00:04;1.33;;;1.10;;
10432;SDS011;5263;48.680;9.004;2023-07-22T03:02:34;2.63;;;1.40;;
10432;SDS011;5263;48.680;9.004;2023-07-22T03:05:00;1.10;;;1.00;;
10432;SDS011;5263;48.680;9.004;2023-07-22T03:07:27;2.53;;;1.40;;
10432;SDS011;5263;48.680;9.004;2023-07-22T03:09:53;1.93;;;1.30;;
10432;SDS011;5263;48.680;9.004;2023-07-22T03:12:19;1.67;;;1.33;;
10432;SDS011;5263;48.680;9.004;2023-07-22T03:14:44;2.70;;;1.50;;
10432;SDS011;5263;48.680;9.004;2023-07-22T03:17:10;1.37;;;1.27;;
10432;SDS011;5263;48.680;9.004;2023-07-22T03:19:39;2.37;;;1.20;;
10432;SDS011;5263;48.680;9.004;2023-07-22T03:22:05;1.27;;;1.10;;
10432;SDS011;5263;48.680;9.004;2023-07-22T03:24:31;1.17;;;1.03;;
10432;SDS011;5263;48.680;9.004;2023-07-22T03:26:56;1.00;;;0.90;;
10432;SDS011;5263;48.680;9.004;2023-07-22T03:29:22;1.20;;;1.07;;
10432;SDS011;5263;48.680;9.004;2023-07-22T03:31:49;2.10;;;1.00;;
10432;SDS011;5263;48.680;9.004;2023-07-22T03:34:15;1.97;;;1.20;;
10432;SDS011;5263;48.680;9.004;2023-07-22T03:36:41;2.10;;;1.20;;
10432;SDS011;5263;48.680;9.004;2023-07-22T03:39:06;1.50;;;1.23;;
10432;SDS011;5263;48.680;9.004;2023-07-22T03:41:33;1.50;;;0.93;;
10432;SDS011;5263;48.680;9.004;2023-07-22T03:43:58;1.17;;;0.90;;
10432;SDS011;5263;48.680;9.004;2023-07-22T03:46:24;1.10;;;1.10;;
10432;SDS011;5263;48.680;9.004;2023-07-22T03:48:49;1.40;;;1.13;;
10432;SDS011;5263;48.680;9.004;2023-07-22T03:51:16;3.20;;;1.47;;
10432;SDS011;5263;48.680;9.004;2023-07-22T03:53:42;0.80;;;0.80;;
10432;SDS011;5263;48.680;9.004;2023-07-22T03:56:08;1.30;;;1.20;;
10432;SDS011;5263;48.680;9.004;2023-07-22T03:58:33;1.40;;;1.10;;
10432;SDS011;5263;48.680;9.004;2023-07-22T04:00:59;1.43;;;1.23;;
10432;SDS011;5263;48.680;9.004;2023-07-22T04:03:24;3.70;;;1.10;;
10432;SDS011;5263;48.680;9.004;2023-07-22T04:05:54;1.30;;;1.20;;
10432;SDS011;5263;48.680;9.004;2023-07-22T04:08:22;1.10;;;1.00;;
10432;SDS011;5263;48.680;9.004;2023-07-22T04:10:52;0.97;;;0.97;;
10432;SDS011;5263;48.680;9.004;2023-07-22T04:13:22;0.93;;;0.90;;
10432;SDS011;5263;48.680;9.004;2023-07-22T04:15:48;3.47;;;1.40;;
10432;SDS011;5263;48.680;9.004;2023-07-22T04:18:15;1.23;;;1.13;;
10432;SDS011;5263;48.680;9.004;2023-07-22T04:20:41;1.30;;;1.20;;
10432;SDS011;5263;48.680;9.004;2023-07-22T04:23:06;1.07;;;0.93;;
10432;SDS011;5263;48.680;9.004;2023-07-22T04:25:32;0.93;;;0.90;;
10432;SDS011;5263;48.680;9.004;2023-07-22T04:27:58;1.53;;;1.33;;
10432;SDS011;5263;48.680;9.004;2023-07-22T04:30:24;2.30;;;1.10;;
10432;SDS011;5263;48.680;9.004;2023-07-22T04:32:50;1.23;;;1.10;;
10432;SDS011;5263;48.680;9.004;2023-07-22T04:35:16;2.50;;;1.17;;
10432;SDS011;5263;48.680;9.004;2023-07-22T04:37:43;2.50;;;1.50;;
10432;SDS011;5263;48.680;9.004;2023-07-22T04:40:10;3.37;;;1.27;;
10432;SDS011;5263;48.680;9.004;2023-07-22T04:42:39;1.70;;;1.40;;
10432;SDS011;5263;48.680;9.004;2023-07-22T04:45:06;1.80;;;1.20;;
10432;SDS011;5263;48.680;9.004;2023-07-22T04:47:34;1.70;;;0.93;;
10432;SDS011;5263;48.680;9.004;2023-07-22T04:50:00;3.13;;;1.27;;
10432;SDS011;5263;48.680;9.004;2023-07-22T04:52:26;2.37;;;1.20;;
10432;SDS011;5263;48.680;9.004;2023-07-22T04:54:51;3.63;;;1.27;;
10432;SDS011;5263;48.680;9.004;2023-07-22T04:57:18;2.57;;;1.40;;
10432;SDS011;5263;48.680;9.004;2023-07-22T04:59:45;2.53;;;1.33;;
10432;SDS011;5263;48.680;9.004;2023-07-22T05:02:11;1.30;;;1.23;;
10432;SDS011;5263;48.680;9.004;2023-07-22T05:04:37;3.40;;;1.40;;
10432;SDS011;5263;48.680;9.004;2023-07-22T05:07:03;2.80;;;1.63;;
10432;SDS011;5263;48.680;9.004;2023-07-22T05:09:29;1.20;;;1.10;;
10432;SDS011;5263;48.680;9.004;2023-07-22T05:11:54;1.73;;;1.07;;
10432;SDS011;5263;48.680;9.004;2023-07-22T05:14:20;4.47;;;1.20;;
10432;SDS011;5263;48.680;9.004;2023-07-22T05:16:46;1.60;;;1.20;;
10432;SDS011;5263;48.680;9.004;2023-07-22T05:19:11;1.67;;;1.30;;
10432;SDS011;5263;48.680;9.004;2023-07-22T05:21:37;1.40;;;1.30;;
10432;SDS011;5263;48.680;9.004;2023-07-22T05:24:02;3.17;;;1.07;;
10432;SDS011;5263;48.680;9.004;2023-07-22T05:26:28;1.30;;;1.07;;
10432;SDS011;5263;48.680;9.004;2023-07-22T05:28:53;1.30;;;1.20;;
10432;SDS011;5263;48.680;9.004;2023-07-22T05:31:19;1.40;;;1.30;;
10432;SDS011;5263;48.680;9.004;2023-07-22T05:33:45;1.50;;;1.40;;
10432;SDS011;5263;48.680;9.004;2023-07-22T05:36:10;3.23;;;1.50;;
10432;SDS011;5263;48.680;9.004;2023-07-22T05:38:36;1.33;;;1.20;;
10432;SDS011;5263;48.680;9.004;2023-07-22T05:41:01;1.03;;;0.93;;
10432;SDS011;5263;48.680;9.004;2023-07-22T05:43:27;1.70;;;1.20;;
10432;SDS011;5263;48.680;9.004;2023-07-22T05:45:53;1.60;;;1.50;;
10432;SDS011;5263;48.680;9.004;2023-07-22T05:48:18;1.00;;;0.90;;
10432;SDS011;5263;48.680;9.004;2023-07-22T05:50:44;1.10;;;1.00;;
10432;SDS011;5263;48.680;9.004;2023-07-22T05:53:10;1.57;;;0.97;;
10432;SDS011;5263;48.680;9.004;2023-07-22T05:55:36;1.10;;;1.00;;
10432;SDS011;5263;48.680;9.004;2023-07-22T05:58:02;2.07;;;1.13;;
10432;SDS011;5263;48.680;9.004;2023-07-22T06:00:31;1.73;;;1.13;;
10432;SDS011;5263;48.680;9.004;2023-07-22T06:02:59;2.10;;;1.13;;
10432;SDS011;5263;48.680;9.004;2023-07-22T06:05:25;2.63;;;1.00;;
10432;SDS011;5263;48.680;9.004;2023-07-22T06:07:50;1.20;;;1.00;;
10432;SDS011;5263;48.680;9.004;2023-07-22T06:10:16;1.13;;;0.90;;
10432;SDS011;5263;48.680;9.004;2023-07-22T06:12:42;2.30;;;0.90;;
10432;SDS011;5263;48.680;9.004;2023-07-22T06:15:07;2.40;;;1.07;;
10432;SDS011;5263;48.680;9.004;2023-07-22T06:17:33;3.53;;;1.10;;
10432;SDS011;5263;48.680;9.004;2023-07-22T06:19:59;1.63;;;0.90;;
10432;SDS011;5263;48.680;9.004;2023-07-22T06:22:25;3.83;;;0.90;;
10432;SDS011;5263;48.680;9.004;2023-07-22T06:24:51;1.73;;;0.90;;
10432;SDS011;5263;48.680;9.004;2023-07-22T06:27:17;1.27;;;0.80;;
10432;SDS011;5263;48.680;9.004;2023-07-22T06:29:42;1.17;;;0.90;;
10432;SDS011;5263;48.680;9.004;2023-07-22T06:32:08;2.70;;;0.80;;
10432;SDS011;5263;48.680;9.004;2023-07-22T06:34:33;1.70;;;0.90;;
10432;SDS011;5263;48.680;9.004;2023-07-22T06:36:59;1.20;;;1.10;;
10432;SDS011;5263;48.680;9.004;2023-07-22T06:39:25;1.33;;;1.20;;
10432;SDS011;5263;48.680;9.004;2023-07-22T06:41:50;1.00;;;0.80;;
10432;SDS011;5263;48.680;9.004;2023-07-22T06:44:16;1.30;;;1.20;;
10432;SDS011;5263;48.680;9.004;2023-07-22T06:46:41;2.33;;;1.10;;
10432;SDS011;5263;48.680;9.004;2023-07-22T06:49:07;9.03;;;1.00;;
10432;SDS011;5263;48.680;9.004;2023-07-22T06:51:32;1.47;;;0.80;;
10432;SDS011;5263;48.680;9.004;2023-07-22T06:53:58;4.00;;;1.13;;
10432;SDS011;5263;48.680;9.004;2023-07-22T06:56:24;0.93;;;0.87;;
10432;SDS011;5263;48.680;9.004;2023-07-22T06:58:51;0.87;;;0.87;;
10432;SDS011;5263;48.680;9.004;2023-07-22T07:01:16;1.53;;;1.00;;
10432;SDS011;5263;48.680;9.004;2023-07-22T07:03:42;1.17;;;0.70;;
10432;SDS011;5263;48.680;9.004;2023-07-22T07:06:08;1.47;;;0.70;;
10432;SDS011;5263;48.680;9.004;2023-07-22T07:08:33;1.10;;;0.70;;
10432;SDS011;5263;48.680;9.004;2023-07-22T07:10:59;1.50;;;1.00;;
10432;SDS011;5263;48.680;9.004;2023-07-22T07:13:28;2.57;;;0.80;;
10432;SDS011;5263;48.680;9.004;2023-07-22T07:15:54;1.07;;;1.00;;
10432;SDS011;5263;48.680;9.004;2023-07-22T07:18:20;1.20;;;0.90;;
10432;SDS011;5263;48.680;9.004;2023-07-22T07:20:45;0.70;;;0.70;;
10432;SDS011;5263;48.680;9.004;2023-07-22T07:23:12;2.53;;;1.10;;
10432;SDS011;5263;48.680;9.004;2023-07-22T07:25:38;2.60;;;0.90;;
10432;SDS011;5263;48.680;9.004;2023-07-22T07:28:04;1.20;;;0.70;;
10432;SDS011;5263;48.680;9.004;2023-07-22T07:30:30;1.47;;;0.87;;
10432;SDS011;5263;48.680;9.004;2023-07-22T07:32:56;1.27;;;1.07;;
10432;SDS011;5263;48.680;9.004;2023-07-22T07:35:21;2.00;;;1.00;;
10432;SDS011;5263;48.680;9.004;2023-07-22T07:37:47;1.60;;;1.50;;
10432;SDS011;5263;48.680;9.004;2023-07-22T07:40:12;2.37;;;0.80;;
10432;SDS011;5263;48.680;9.004;2023-07-22T07:42:38;4.07;;;1.33;;
10432;SDS011;5263;48.680;9.004;2023-07-22T07:45:04;4.27;;;1.23;;
10432;SDS011;5263;48.680;9.004;2023-07-22T07:47:30;1.00;;;0.87;;
10432;SDS011;5263;48.680;9.004;2023-07-22T07:49:55;0.77;;;0.77;;
10432;SDS011;5263;48.680;9.004;2023-07-22T07:52:21;1.13;;;0.80;;
10432;SDS011;5263;48.680;9.004;2023-07-22T07:54:47;0.73;;;0.63;;
10432;SDS011;5263;48.680;9.004;2023-07-22T07:57:13;3.93;;;0.83;;
10432;SDS011;5263;48.680;9.004;2023-07-22T07:59:38;1.80;;;0.73;;
10432;SDS011;5263;48.680;9.004;2023-07-22T08:02:04;1.00;;;0.90;;
10432;SDS011;5263;48.680;9.004;2023-07-22T08:04:34;0.87;;;0.80;;
10432;SDS011;5263;48.680;9.004;2023-07-22T08:06:59;3.20;;;0.67;;
10432;SDS011;5263;48.680;9.004;2023-07-22T08:09:25;0.87;;;0.70;;
10432;SDS011;5263;48.680;9.004;2023-07-22T08:11:51;2.30;;;0.70;;
10432;SDS011;5263;48.680;9.004;2023-07-22T08:14:16;2.60;;;0.83;;
10432;SDS011;5263;48.680;9.004;2023-07-22T08:16:43;0.90;;;0.77;;
10432;SDS011;5263;48.680;9.004;2023-07-22T08:19:09;1.90;;;0.60;;
10432;SDS011;5263;48.680;9.004;2023-07-22T08:21:34;5.90;;;1.13;;
10432;SDS011;5263;48.680;9.004;2023-07-22T08:24:00;2.80;;;0.60;;
10432;SDS011;5263;48.680;9.004;2023-07-22T08:26:26;1.67;;;0.63;;
10432;SDS011;5263;48.680;9.004;2023-07-22T08:28:52;4.03;;;0.63;;
10432;SDS011;5263;48.680;9.004;2023-07-22T08:31:18;0.77;;;0.73;;
10432;SDS011;5263;48.680;9.004;2023-07-22T08:33:43;1.17;;;0.97;;
10432;SDS011;5263;48.680;9.004;2023-07-22T08:36:09;1.00;;;0.80;;
10432;SDS011;5263;48.680;9.004;2023-07-22T08:38:35;0.80;;;0.80;;
10432;SDS011;5263;48.680;9.004;2023-07-22T08:41:00;0.47;;;0.47;;
10432;SDS011;5263;48.680;9.004;2023-07-22T08:43:26;1.23;;;0.60;;
10432;SDS011;5263;48.680;9.004;2023-07-22T08:45:53;1.67;;;0.40;;
10432;SDS011;5263;48.680;9.004;2023-07-22T08:48:20;0.50;;;0.50;;
10432;SDS011;5263;48.680;9.004;2023-07-22T08:50:55;1.10;;;0.40;;
10432;SDS011;5263;48.680;9.004;2023-07-22T08:53:27;1.03;;;0.50;;
10432;SDS011;5263;48.680;9.004;2023-07-22T08:55:54;1.93;;;0.60;;
10432;SDS011;5263;48.680;9.004;2023-07-22T08:58:20;2.80;;;0.60;;
10432;SDS011;5263;48.680;9.004;2023-07-22T09:00:47;2.27;;;0.60;;
10432;SDS011;5263;48.680;9.004;2023-07-22T09:03:13;0.50;;;0.50;;
10432;SDS011;5263;48.680;9.004;2023-07-22T09:05:39;2.87;;;0.40;;
10432;SDS011;5263;48.680;9.004;2023-07-22T09:08:06;2.10;;;0.50;;
10432;SDS011;5263;48.680;9.004;2023-07-22T09:10:33;0.77;;;0.60;;
10432;SDS011;5263;48.680;9.004;2023-07-22T09:13:00;1.73;;;0.60;;
10432;SDS011;5263;48.680;9.004;2023-07-22T09:15:27;0.73;;;0.50;;
10432;SDS011;5263;48.680;9.004;2023-07-22T09:17:53;0.50;;;0.50;;
10432;SDS011;5263;48.680;9.004;2023-07-22T09:20:19;2.53;;;0.50;;
10432;SDS011;5263;48.680;9.004;2023-07-22T09:22:46;0.50;;;0.40;;
10432;SDS011;5263;48.680;9.004;2023-07-22T09:25:13;0.87;;;0.60;;
10432;SDS011;5263;48.680;9.004;2023-07-22T09:27:42;0.87;;;0.40;;
10432;SDS011;5263;48.680;9.004;2023-07-22T09:30:21;0.60;;;0.43;;
10432;SDS011;5263;48.680;9.004;2023-07-22T09:32:51;3.50;;;0.40;;
10432;SDS011;5263;48.680;9.004;2023-07-22T09:35:31;0.67;;;0.50;;
10432;SDS011;5263;48.680;9.004;2023-07-22T09:38:12;2.37;;;0.40;;
10432;SDS011;5263;48.680;9.004;2023-07-22T09:40:40;0.40;;;0.40;;
10432;SDS011;5263;48.680;9.004;2023-07-22T09:43:08;0.40;;;0.40;;
10432;SDS011;5263;48.680;9.004;2023-07-22T09:45:35;1.30;;;0.60;;
10432;SDS011;5263;48.680;9.004;2023-07-22T09:48:02;1.70;;;0.60;;
10432;SDS011;5263;48.680;9.004;2023-07-22T09:50:28;0.40;;;0.40;;
10432;SDS011;5263;48.680;9.004;2023-07-22T09:52:55;5.07;;;0.60;;
10432;SDS011;5263;48.680;9.004;2023-07-22T09:55:24;3.07;;;0.50;;
10432;SDS011;5263;48.680;9.004;2023-07-22T09:57:52;1.00;;;0.50;;
10432;SDS011;5263;48.680;9.004;2023-07-22T10:00:19;0.53;;;0.53;;
10432;SDS011;5263;48.680;9.004;2023-07-22T10:02:46;1.37;;;0.60;;
10432;SDS011;5263;48.680;9.004;2023-07-22T10:05:14;2.50;;;0.50;;
10432;SDS011;5263;48.680;9.004;2023-07-22T10:07:51;0.40;;;0.40;;
10432;SDS011;5263;48.680;9.004;2023-07-22T10:10:20;1.80;;;0.50;;
10432;SDS011;5263;48.680;9.004;2023-07-22T10:12:51;0.73;;;0.47;;
10432;SDS011;5263;48.680;9.004;2023-07-22T10:15:18;1.33;;;0.50;;
10432;SDS011;5263;48.680;9.004;2023-07-22T10:17:44;0.87;;;0.43;;
10432;SDS011;5263;48.680;9.004;2023-07-22T10:20:11;0.53;;;0.50;;
10432;SDS011;5263;48.680;9.004;2023-07-22T10:22:41;2.80;;;0.70;;
10432;SDS011;5263;48.680;9.004;2023-07-22T10:25:08;2.20;;;0.70;;
10432;SDS011;5263;48.680;9.004;2023-07-22T10:27:46;0.50;;;0.47;;
10432;SDS011;5263;48.680;9.004;2023-07-22T10:30:13;0.83;;;0.60;;
10432;SDS011;5263;48.680;9.004;2023-07-22T10:32:42;0.90;;;0.57;;
10432;SDS011;5263;48.680;9.004;2023-07-22T10:35:16;0.50;;;0.50;;
10432;SDS011;5263;48.680;9.004;2023-07-22T10:37:44;0.87;;;0.50;;
10432;SDS011;5263;48.680;9.004;2023-07-22T10:42:52;0.73;;;0.47;;
10432;SDS011;5263;48.680;9.004;2023-07-22T10:45:29;0.60;;;0.60;;
10432;SDS011;5263;48.680;9.004;2023-07-22T10:48:07;1.53;;;0.63;;
10432;SDS011;5263;48.680;9.004;2023-07-22T10:50:46;1.07;;;0.60;;
10432;SDS011;5263;48.680;9.004;2023-07-22T10:56:04;0.83;;;0.67;;
10432;SDS011;5263;48.680;9.004;2023-07-22T11:06:40;1.37;;;1.27;;
10432;SDS011;5263;48.680;9.004;2023-07-22T11:11:57;3.07;;;0.73;;
10432;SDS011;5263;48.680;9.004;2023-07-22T11:14:25;0.60;;;0.60;;
10432;SDS011;5263;48.680;9.004;2023-07-22T11:16:52;0.50;;;0.50;;
10432;SDS011;5263;48.680;9.004;2023-07-22T11:19:19;1.30;;;0.60;;
10432;SDS011;5263;48.680;9.004;2023-07-22T11:21:47;0.70;;;0.70;;
10432;SDS011;5263;48.680;9.004;2023-07-22T11:24:14;2.53;;;0.60;;
10432;SDS011;5263;48.680;9.004;2023-07-22T11:26:41;0.60;;;0.60;;
10432;SDS011;5263;48.680;9.004;2023-07-22T11:29:07;1.03;;;0.60;;
10432;SDS011;5263;48.680;9.004;2023-07-22T11:31:35;2.27;;;0.60;;
10432;SDS011;5263;48.680;9.004;2023-07-22T11:34:02;0.63;;;0.57;;
10432;SDS011;5263;48.680;9.004;2023-07-22T11:36:28;2.40;;;0.50;;
10432;SDS011;5263;48.680;9.004;2023-07-22T11:38:54;2.00;;;0.67;;
10432;SDS011;5263;48.680;9.004;2023-07-22T11:41:30;0.60;;;0.60;;
10432;SDS011;5263;48.680;9.004;2023-07-22T11:43:58;0.70;;;0.70;;
10432;SDS011;5263;48.680;9.004;2023-07-22T11:46:24;3.90;;;0.67;;
10432;SDS011;5263;48.680;9.004;2023-07-22T11:48:53;2.30;;;0.87;;
10432;SDS011;5263;48.680;9.004;2023-07-22T11:51:21;1.90;;;0.70;;
10432;SDS011;5263;48.680;9.004;2023-07-22T11:53:49;3.00;;;0.50;;
10432;SDS011;5263;48.680;9.004;2023-07-22T11:56:22;0.80;;;0.60;;
10432;SDS011;5263;48.680;9.004;2023-07-22T11:58:51;0.57;;;0.57;;
10432;SDS011;5263;48.680;9.004;2023-07-22T12:01:18;0.83;;;0.80;;
10432;SDS011;5263;48.680;9.004;2023-07-22T12:03:44;1.93;;;0.67;;
10432;SDS011;5263;48.680;9.004;2023-07-22T12:06:11;2.77;;;0.60;;
10432;SDS011;5263;48.680;9.004;2023-07-22T12:08:42;1.90;;;0.67;;
10432;SDS011;5263;48.680;9.004;2023-07-22T12:11:15;0.83;;;0.60;;
10432;SDS011;5263;48.680;9.004;2023-07-22T12:13:42;2.50;;;0.60;;
10432;SDS011;5263;48.680;9.004;2023-07-22T12:16:11;1.93;;;0.63;;
10432;SDS011;5263;48.680;9.004;2023-07-22T12:18:41;2.87;;;0.70;;
10432;SDS011;5263;48.680;9.004;2023-07-22T12:21:10;1.17;;;0.80;;
10432;SDS011;5263;48.680;9.004;2023-07-22T12:23:36;1.33;;;0.60;;
10432;SDS011;5263;48.680;9.004;2023-07-22T12:26:03;1.03;;;0.60;;
10432;SDS011;5263;48.680;9.004;2023-07-22T12:28:32;0.70;;;0.70;;
10432;SDS011;5263;48.680;9.004;2023-07-22T12:30:57;2.40;;;0.80;;
10432;SDS011;5263;48.680;9.004;2023-07-22T12:33:23;0.70;;;0.70;;
10432;SDS011;5263;48.680;9.004;2023-07-22T12:35:50;1.00;;;1.00;;
10432;SDS011;5263;48.680;9.004;2023-07-22T12:38:16;1.92;;;0.82;;
10432;SDS011;5263;48.680;9.004;2023-07-22T12:40:42;1.98;;;0.93;;
10432;SDS011;5263;48.680;9.004;2023-07-22T12:43:07;1.40;;;0.80;;
10432;SDS011;5263;48.680;9.004;2023-07-22T12:45:33;0.90;;;0.85;;
10432;SDS011;5263;48.680;9.004;2023-07-22T12:47:59;1.10;;;0.93;;
10432;SDS011;5263;48.680;9.004;2023-07-22T12:50:24;0.80;;;0.80;;
10432;SDS011;5263;48.680;9.004;2023-07-22T12:52:50;0.70;;;0.70;;
10432;SDS011;5263;48.680;9.004;2023-07-22T12:55:16;0.70;;;0.70;;
10432;SDS011;5263;48.680;9.004;2023-07-22T12:57:41;0.80;;;0.80;;
10432;SDS011;5263;48.680;9.004;2023-07-22T13:00:07;1.50;;;1.00;;
10432;SDS011;5263;48.680;9.004;2023-07-22T13:02:35;1.25;;;1.00;;
10432;SDS011;5263;48.680;9.004;2023-07-22T13:05:02;2.60;;;1.00;;
10432;SDS011;5263;48.680;9.004;2023-07-22T13:07:29;1.00;;;0.90;;
10432;SDS011;5263;48.680;9.004;2023-07-22T13:09:55;5.47;;;0.90;;
10432;SDS011;5263;48.680;9.004;2023-07-22T13:12:22;1.42;;;1.00;;
10432;SDS011;5263;48.680;9.004;2023-07-22T13:14:48;1.50;;;1.08;;
10432;SDS011;5263;48.680;9.004;2023-07-22T13:17:13;0.75;;;0.75;;
10432;SDS011;5263;48.680;9.004;2023-07-22T13:19:39;2.70;;;1.00;;
10432;SDS011;5263;48.680;9.004;2023-07-22T13:22:05;1.20;;;0.98;;
10432;SDS011;5263;48.680;9.004;2023-07-22T13:24:30;1.35;;;1.02;;
10432;SDS011;5263;48.680;9.004;2023-07-22T13:26:56;1.55;;;0.90;;
10432;SDS011;5263;48.680;9.004;2023-07-22T13:29:21;0.93;;;0.93;;
10432;SDS011;5263;48.680;9.004;2023-07-22T13:31:47;0.90;;;0.90;;
10432;SDS011;5263;48.680;9.004;2023-07-22T13:34:13;1.23;;;1.13;;
10432;SDS011;5263;48.680;9.004;2023-07-22T13:36:39;1.20;;;1.10;;
10432;SDS011;5263;48.680;9.004;2023-07-22T13:39:04;0.70;;;0.70;;
10432;SDS011;5263;48.680;9.004;2023-07-22T13:41:30;1.53;;;0.90;;
10432;SDS011;5263;48.680;9.004;2023-07-22T13:43:56;1.73;;;0.73;;
10432;SDS011;5263;48.680;9.004;2023-07-22T13:46:21;2.72;;;1.45;;
10432;SDS011;5263;48.680;9.004;2023-07-22T13:48:47;2.27;;;0.90;;
10432;SDS011;5263;48.680;9.004;2023-07-22T13:51:13;1.30;;;1.20;;
10432;SDS011;5263;48.680;9.004;2023-07-22T13:53:39;1.23;;;1.17;;
10432;SDS011;5263;48.680;9.004;2023-07-22T13:56:04;0.87;;;0.87;;
10432;SDS011;5263;48.680;9.004;2023-07-22T13:58:30;1.47;;;1.20;;
10432;SDS011;5263;48.680;9.004;2023-07-22T14:00:55;0.97;;;0.97;;
10432;SDS011;5263;48.680;9.004;2023-07-22T14:03:21;1.30;;;1.20;;
10432;SDS011;5263;48.680;9.004;2023-07-22T14:05:47;1.30;;;1.10;;
10432;SDS011;5263;48.680;9.004;2023-07-22T14:08:12;2.67;;;1.00;;
10432;SDS011;5263;48.680;9.004;2023-07-22T14:10:38;1.33;;;1.00;;
10432;SDS011;5263;48.680;9.004;2023-07-22T14:13:03;1.00;;;0.90;;
10432;SDS011;5263;48.680;9.004;2023-07-22T14:15:29;1.87;;;1.00;;
10432;SDS011;5263;48.680;9.004;2023-07-22T14:17:55;3.90;;;1.23;;
10432;SDS011;5263;48.680;9.004;2023-07-22T14:20:20;1.00;;;1.00;;
10432;SDS011;5263;48.680;9.004;2023-07-22T14:22:47;1.77;;;1.03;;
10432;SDS011;5263;48.680;9.004;2023-07-22T14:25:14;3.20;;;1.07;;
10432;SDS011;5263;48.680;9.004;2023-07-22T14:27:40;2.20;;;0.93;;
10432;SDS011;5263;48.680;9.004;2023-07-22T14:30:06;1.20;;;1.05;;
10432;SDS011;5263;48.680;9.004;2023-07-22T14:32:33;1.13;;;1.00;;
10432;SDS011;5263;48.680;9.004;2023-07-22T14:34:58;1.30;;;1.20;;
10432;SDS011;5263;48.680;9.004;2023-07-22T14:37:24;4.10;;;1.77;;
10432;SDS011;5263;48.680;9.004;2023-07-22T14:39:50;1.17;;;0.80;;
10432;SDS011;5263;48.680;9.004;2023-07-22T14:42:15;1.10;;;1.10;;
10432;SDS011;5263;48.680;9.004;2023-07-22T14:44:41;0.90;;;0.77;;
10432;SDS011;5263;48.680;9.004;2023-07-22T14:47:06;1.48;;;1.20;;
10432;SDS011;5263;48.680;9.004;2023-07-22T14:49:32;1.10;;;1.00;;
10432;SDS011;5263;48.680;9.004;2023-07-22T14:51:57;1.40;;;1.30;;
10432;SDS011;5263;48.680;9.004;2023-07-22T14:54:23;5.53;;;1.20;;
10432;SDS011;5263;48.680;9.004;2023-07-22T14:56:48;3.27;;;1.13;;
10432;SDS011;5263;48.680;9.004;2023-07-22T14:59:15;1.53;;;1.40;;
10432;SDS011;5263;48.680;9.004;2023-07-22T15:01:41;2.37;;;1.17;;
10432;SDS011;5263;48.680;9.004;2023-07-22T15:04:07;1.03;;;1.00;;
10432;SDS011;5263;48.680;9.004;2023-07-22T15:06:33;1.27;;;1.27;;
10432;SDS011;5263;48.680;9.004;2023-07-22T15:09:00;1.13;;;1.13;;
10432;SDS011;5263;48.680;9.004;2023-07-22T15:11:26;2.07;;;1.10;;
10432;SDS011;5263;48.680;9.004;2023-07-22T15:13:52;1.40;;;1.30;;